Terminal Aerodrome Forecast
Issued by NWS Portland, OR

Home | Current Version | Previous Version | Text Only | Print | Product List | Glossary On
Versions: 1 2 3 4 5 6 7 8 9 10 11 12 13 14 15 16 17
000
FTUS46 KPQR 250541
TAFSLE
TAF
KSLE 250541Z 2506/2606 00000KT P6SM SCT250
     FM251000 VRB03KT 3SM BR SCT250
     FM251300 VRB03KT 2SM BR BKN003
     FM251800 01005KT 6SM BR SCT007 OVC080
     FM252000 01005KT P6SM SCT025 OVC050=

USA.gov is the U.S. government's official web portal to all federal, state and local government web resources and services.